Etusivu
METAR-TAF:

METAR-TAF

Lentoasemat :

Heidrun, Norja

Leveyspiiri: 65-19-30N, Pituuspiiri: 007-19-36E, korkeus merenpinnasta: 0 m

Tämänhetkinen sää

Tämä raportti tehtiin 24 minuuttia sitten, kello 13.20 UTC
Tuuli 10 kn etelästä/lounaasta
Lämpötila 13°C
Kosteus 72%
Ilmanpaine 1026 hPa
Näkyvyys 10 km tai enemmän
ei pilviä alle 1500 m:ssä eikä cumulonimbus-pilviä

METAR: ENHE 241320Z 21010KT CAVOK 13/08 Q1026 W///S4

Aika: 15:44 (13:44 UTC)

Sääennuste

Tämä raportti tehtiin 16 minuuttia sitten, kello 13.28 UTC
Ennuste voimassa 24. päivästä klo 13 UTC - 24. päivään klo 21 UTC
Tuuli 15 kn lounaasta
Näkyvyys 10 km tai enemmän
ei pilviä alle 1500 m:ssä eikä cumulonimbus-pilviä
Tulossa
24. päivästä klo 15 UTC - 24. päivään klo 17 UTC
Hajonneita pilviä 400 ft:n korkeudessa

TAF: ENHE 241328Z 2413/2421 23015KT CAVOK BECMG 2415/2417 BKN004

Säähavainnot ja -ennusteet yli 4000 lentoasemalta (METAR- ja TAF-raportit).

Käytössä olevat sääasemat on merkitty karttaan keltaisilla ja punaisilla pisteillä.

Aseta hiiri pisteen päälle nähdäksesi sääaseman nimen.

Klikkaa sitten nähdäksesi säähavainnot ja -ennusteet.

Kartan vaihtaminen: klikkaa mustalla rastilla varustettuja vihreitä pisteitä, niin voit zoomata sisään; viivalla varustettua vihreää pistettä, niin voit zoomata ulos tai vihreitä nuolia, niin pääset viereisille kartoille.


METAR-TAF: